Time;durP1;ratioP1;P1;durP2;ratioP2;P2;SDS_P1;SDS_P2;PMS_P1;PMS_P2;Temp;Humidity;BMP_temperature;BMP_pressure;BME280_temperature;BME280_humidity;BME280_pressure;Samples;Min_cycle;Max_cycle;Signal;HPM_P1;HPM_P2
2020/12/25 00:01:23;;;;;;;0.68;0.40;;;;;;;3.07;87.31;102213.38;5065638;28;20032;-82
2020/12/25 00:03:48;;;;;;;5.63;0.93;;;;;;;3.05;87.28;102208.16;5054634;28;20067;-82
2020/12/25 00:06:14;;;;;;;1.42;0.40;;;;;;;2.98;87.41;102213.56;5062539;28;20675;-81
2020/12/25 00:08:39;;;;;;;3.25;0.50;;;;;;;2.96;87.67;102210.03;5079227;28;20027;-81
2020/12/25 00:11:05;;;;;;;3.58;0.80;;;;;;;2.90;87.76;102214.59;5073474;28;20031;-82
2020/12/25 00:13:30;;;;;;;1.02;0.40;;;;;;;2.88;87.43;102226.28;5082010;28;20048;-80
2020/12/25 00:15:55;;;;;;;1.90;0.57;;;;;;;2.89;87.31;102217.03;5079394;28;20513;-82
2020/12/25 00:18:21;;;;;;;3.63;0.60;;;;;;;2.88;87.45;102226.28;5089128;28;20020;-81
2020/12/25 00:20:50;;;;;;;2.37;0.50;;;;;;;2.79;88.15;102229.03;5070181;28;20390;-82
2020/12/25 00:23:15;;;;;;;2.50;0.60;;;;;;;2.76;88.13;102236.41;5060467;28;20084;-81
2020/12/25 00:25:41;;;;;;;2.95;0.55;;;;;;;2.69;88.55;102243.44;5077800;28;20047;-83
2020/12/25 00:28:06;;;;;;;1.07;0.30;;;;;;;2.68;88.60;102236.59;5061053;28;20021;-82
2020/12/25 00:30:31;;;;;;;0.70;0.40;;;;;;;2.64;88.69;102240.53;5066286;28;20912;-82
2020/12/25 00:32:56;;;;;;;6.07;0.60;;;;;;;2.62;89.13;102237.00;5066272;28;20093;-82
2020/12/25 00:35:22;;;;;;;3.47;0.40;;;;;;;2.59;89.18;102238.38;5080802;28;20286;-82
2020/12/25 00:37:47;;;;;;;1.97;0.57;;;;;;;2.62;89.13;102246.25;5069723;28;20304;-81
2020/12/25 00:40:12;;;;;;;2.60;0.50;;;;;;;2.61;89.31;102249.56;5074747;28;20047;-81
2020/12/25 00:42:37;;;;;;;1.23;0.60;;;;;;;2.57;89.64;102252.59;5076860;28;20310;-81
2020/12/25 00:45:04;;;;;;;1.47;0.60;;;;;;;2.55;89.68;102260.09;5058513;28;20279;-81
2020/12/25 00:47:29;;;;;;;;;;;;;;;2.53;89.94;102260.75;5077749;28;20024;-81
2020/12/25 00:49:54;;;;;;;2.20;0.50;;;;;;;2.50;90.09;102272.41;5066258;28;19912;-82
2020/12/25 00:52:19;;;;;;;3.43;0.57;;;;;;;2.47;90.27;102269.63;5074857;28;20031;-80
2020/12/25 00:54:45;;;;;;;1.10;0.40;;;;;;;2.58;90.50;102267.06;5082454;28;20275;-81
2020/12/25 00:57:10;;;;;;;2.73;0.70;;;;;;;2.62;89.90;102272.50;5063387;28;20271;-82
2020/12/25 00:59:38;;;;;;;1.23;0.43;;;;;;;2.64;90.30;102276.06;5051202;28;20028;-82
2020/12/25 01:02:03;;;;;;;4.37;0.67;;;;;;;2.67;89.99;102278.81;5057661;28;20033;-82
2020/12/25 01:04:29;;;;;;;2.25;0.40;;;;;;;2.65;89.70;102277.81;5055026;28;20021;-82
2020/12/25 01:06:54;;;;;;;1.35;0.40;;;;;;;2.67;90.10;102295.69;5056392;28;20020;-82
2020/12/25 01:09:19;;;;;;;6.13;1.20;;;;;;;2.69;89.80;102297.59;5052652;28;20048;-82
2020/12/25 01:11:44;;;;;;;5.22;0.77;;;;;;;2.72;89.39;102291.88;5079185;28;20043;-81
2020/12/25 01:14:10;;;;;;;6.87;1.33;;;;;;;2.65;89.95;102292.16;5051194;28;20029;-81
2020/12/25 01:16:35;;;;;;;1.67;0.57;;;;;;;2.70;90.06;102280.72;5055183;28;20093;-81
2020/12/25 01:19:00;;;;;;;3.42;0.70;;;;;;;2.75;90.13;102285.38;5066382;28;20091;-82
2020/12/25 01:21:26;;;;;;;7.43;1.08;;;;;;;2.80;90.01;102289.16;5047588;28;20020;-82
2020/12/25 01:23:51;;;;;;;4.77;1.30;;;;;;;2.86;90.16;102296.34;5055410;28;20083;-81
2020/12/25 01:26:16;;;;;;;2.20;0.80;;;;;;;2.87;90.04;102293.03;5064401;28;20279;-80
2020/12/25 01:28:41;;;;;;;5.67;1.20;;;;;;;2.92;89.99;102303.56;5065701;28;20648;-82
2020/12/25 01:31:07;;;;;;;4.30;0.90;;;;;;;2.93;89.88;102310.44;5061357;28;20123;-81
2020/12/25 01:33:33;;;;;;;9.40;1.23;;;;;;;2.84;89.82;102315.66;5061267;28;20116;-82
2020/12/25 01:35:59;;;;;;;13.07;1.33;;;;;;;2.90;89.94;102317.78;5067175;28;20037;-82
2020/12/25 01:38:25;;;;;;;7.68;1.35;;;;;;;2.85;89.89;102319.97;5050106;28;20029;-82
2020/12/25 01:40:50;;;;;;;7.30;1.23;;;;;;;2.86;89.67;102328.47;5063908;28;20043;-81
2020/12/25 01:43:15;;;;;;;10.27;1.27;;;;;;;2.84;90.04;102328.34;5049575;28;20402;-81
2020/12/25 01:45:41;;;;;;;5.23;1.23;;;;;;;2.86;89.95;102328.47;5055455;28;20028;-82
2020/12/25 01:48:06;;;;;;;6.47;1.00;;;;;;;2.87;89.90;102341.25;5057356;28;20278;-83
2020/12/25 01:50:32;;;;;;;8.32;1.48;;;;;;;2.86;89.53;102342.03;5061729;28;20024;-83
2020/12/25 01:53:01;;;;;;;3.33;0.88;;;;;;;2.92;89.08;102339.09;5066572;28;20122;-82
2020/12/25 01:55:30;;;;;;;5.33;1.00;;;;;;;2.88;89.31;102344.69;5074323;28;20025;-82
2020/12/25 01:57:58;;;;;;;6.93;1.07;;;;;;;2.88;89.48;102348.13;5067417;28;20028;-81
2020/12/25 02:00:24;;;;;;;6.13;0.90;;;;;;;2.91;88.78;102340.72;5072878;28;20032;-82
2020/12/25 02:02:49;;;;;;;6.63;0.90;;;;;;;2.88;88.78;102347.22;5062611;28;20024;-81
2020/12/25 02:05:15;;;;;;;2.90;0.77;;;;;;;2.84;88.87;102346.09;5067153;28;20028;-80
2020/12/25 02:07:42;;;;;;;8.32;1.42;;;;;;;2.81;88.77;102345.88;5081937;28;20029;-82
2020/12/25 02:10:07;;;;;;;;;;;;;;;2.80;88.82;102349.16;5048275;28;20017;-81
2020/12/25 02:12:32;;;;;;;6.00;0.80;;;;;;;2.69;88.99;102350.88;5067915;28;20012;-82
2020/12/25 02:14:58;;;;;;;5.60;0.88;;;;;;;2.73;88.97;102345.28;5066311;28;20021;-81
2020/12/25 02:17:23;;;;;;;3.55;1.15;;;;;;;2.70;89.25;102356.84;5084643;28;20024;-82
2020/12/25 02:19:49;;;;;;;4.72;0.70;;;;;;;2.66;89.71;102352.28;5062326;28;20556;-81
2020/12/25 02:22:14;;;;;;;2.70;0.60;;;;;;;2.61;89.77;102361.19;5072534;28;20015;-82
2020/12/25 02:24:39;;;;;;;3.13;1.02;;;;;;;2.58;89.91;102365.97;5070215;28;20347;-81
2020/12/25 02:27:05;;;;;;;6.07;1.07;;;;;;;2.57;90.13;102371.81;5050983;28;20682;-81
2020/12/25 02:29:30;;;;;;;3.83;0.87;;;;;;;2.57;90.30;102370.16;5078984;28;20263;-81
2020/12/25 02:31:55;;;;;;;3.87;1.00;;;;;;;2.57;90.50;102374.34;5054625;28;20493;-81
2020/12/25 02:34:20;;;;;;;4.97;0.70;;;;;;;2.57;90.08;102374.34;5060008;28;20267;-82
2020/12/25 02:36:46;;;;;;;4.72;0.80;;;;;;;2.55;90.21;102380.97;5044750;28;20017;-82
2020/12/25 02:39:11;;;;;;;7.28;0.82;;;;;;;2.56;90.15;102387.81;5070063;28;20052;-81
2020/12/25 02:41:36;;;;;;;1.97;0.70;;;;;;;2.52;90.24;102389.22;5063172;28;20024;-82
2020/12/25 02:44:02;;;;;;;3.92;0.60;;;;;;;2.44;90.05;102393.66;5080137;28;20274;-80
2020/12/25 02:46:28;;;;;;;6.00;0.80;;;;;;;2.53;90.05;102407.84;5049083;28;20093;-81
2020/12/25 02:48:54;;;;;;;4.13;0.98;;;;;;;2.36;89.80;102419.19;5065484;28;20033;-81
2020/12/25 02:51:20;;;;;;;3.88;0.85;;;;;;;2.31;90.84;102421.34;5064363;28;20035;-82
2020/12/25 02:53:46;;;;;;;3.60;0.80;;;;;;;2.33;90.82;102424.88;5082754;28;20565;-81
2020/12/25 02:56:16;;;;;;;9.43;1.10;;;;;;;2.42;91.21;102415.47;5051953;28;20021;-80
2020/12/25 02:58:41;;;;;;;3.20;0.87;;;;;;;2.45;90.90;102414.84;5077782;28;20025;-80
2020/12/25 03:01:10;;;;;;;6.28;1.08;;;;;;;2.43;90.87;102417.25;5069382;28;20033;-81
2020/12/25 03:03:35;;;;;;;4.93;0.90;;;;;;;2.42;91.58;102433.25;5045053;28;20021;-80
2020/12/25 03:06:00;;;;;;;3.03;1.20;;;;;;;2.50;91.75;102431.31;5052953;28;20032;-81
2020/12/25 03:08:25;;;;;;;8.70;1.53;;;;;;;2.63;91.62;102441.72;5069453;28;20784;-81
2020/12/25 03:10:51;;;;;;;9.87;1.70;;;;;;;2.69;91.41;102443.84;5060726;28;20088;-82
2020/12/25 03:13:16;;;;;;;6.13;1.63;;;;;;;2.83;91.41;102433.16;5052251;28;20274;-79
2020/12/25 03:15:41;;;;;;;6.40;1.10;;;;;;;2.86;90.68;102410.56;5052491;28;20267;-80
2020/12/25 03:18:06;;;;;;;5.37;1.60;;;;;;;2.85;90.51;102418.94;5058678;28;20115;-80
2020/12/25 03:20:32;;;;;;;6.47;1.07;;;;;;;2.93;89.53;102417.91;5057308;28;20271;-78
2020/12/25 03:22:57;;;;;;;1.17;0.50;;;;;;;2.90;89.55;102412.56;5039351;28;20057;-79
2020/12/25 03:25:22;;;;;;;2.67;0.70;;;;;;;2.97;90.00;102414.84;5039949;28;20029;-80
2020/12/25 03:27:47;;;;;;;5.43;1.07;;;;;;;2.96;90.14;102427.44;5039105;28;20028;-79
2020/12/25 03:30:13;;;;;;;3.40;0.73;;;;;;;2.93;90.89;102433.16;5067201;28;20353;-79
2020/12/25 03:32:38;;;;;;;7.70;0.80;;;;;;;2.96;90.90;102418.16;5075879;28;20032;-80
2020/12/25 03:35:03;;;;;;;3.87;0.80;;;;;;;3.02;90.57;102405.06;5075285;28;20302;-79
2020/12/25 03:37:29;;;;;;;6.40;1.17;;;;;;;3.06;90.13;102400.34;5058643;28;20028;-78
2020/12/25 03:39:54;;;;;;;4.37;0.90;;;;;;;3.00;90.18;102399.88;5081308;28;20039;-79
2020/12/25 03:42:19;;;;;;;3.17;0.90;;;;;;;2.94;90.48;102412.06;5062670;28;20640;-80
2020/12/25 03:44:45;;;;;;;6.18;0.80;;;;;;;2.87;90.96;102412.31;5064736;28;20092;-80
2020/12/25 03:47:10;;;;;;;3.87;0.57;;;;;;;2.74;91.27;102415.56;5041263;28;20056;-80
2020/12/25 03:49:35;;;;;;;5.30;1.23;;;;;;;2.67;91.56;102414.94;5043071;28;20271;-80
2020/12/25 03:52:00;;;;;;;4.27;1.20;;;;;;;2.61;91.47;102417.00;5050221;28;20278;-79
2020/12/25 03:54:26;;;;;;;8.97;1.33;;;;;;;2.58;91.80;102420.13;5049328;28;20279;-79
2020/12/25 03:56:51;;;;;;;4.77;1.20;;;;;;;2.52;92.05;102426.38;5061082;28;20108;-79
2020/12/25 03:59:16;;;;;;;6.80;1.20;;;;;;;2.45;92.27;102425.88;5059781;28;20054;-78
2020/12/25 04:01:41;;;;;;;7.97;1.42;;;;;;;2.35;92.42;102432.63;5080286;28;20390;-78
2020/12/25 04:04:07;;;;;;;10.85;1.92;;;;;;;2.32;92.71;102429.84;5052880;28;20017;-79
2020/12/25 04:06:32;;;;;;;10.97;1.80;;;;;;;2.26;92.41;102426.78;5042448;28;20037;-79
2020/12/25 04:08:57;;;;;;;6.83;1.30;;;;;;;2.15;92.54;102434.38;5053779;28;20362;-79
2020/12/25 04:11:22;;;;;;;14.63;1.80;;;;;;;2.26;93.13;102427.66;5060630;28;20032;-80
2020/12/25 04:13:48;;;;;;;4.55;1.67;;;;;;;2.30;92.91;102428.81;5080527;28;20091;-79
2020/12/25 04:16:13;;;;;;;8.83;1.70;;;;;;;2.27;92.52;102423.47;5052583;28;20509;-79
2020/12/25 04:18:38;;;;;;;7.53;1.40;;;;;;;2.30;92.91;102426.28;5043704;28;20337;-79
2020/12/25 04:21:04;;;;;;;8.17;1.43;;;;;;;2.31;92.57;102428.94;5044764;28;20333;-78
2020/12/25 04:23:29;;;;;;;8.00;1.35;;;;;;;2.31;92.11;102438.22;5045254;28;20028;-78
2020/12/25 04:25:55;;;;;;;12.63;2.15;;;;;;;2.23;92.16;102441.72;5072896;28;20036;-79
2020/12/25 04:28:20;;;;;;;9.30;1.40;;;;;;;2.21;92.39;102443.25;5082377;28;20033;-78
2020/12/25 04:30:45;;;;;;;5.88;1.00;;;;;;;2.18;92.58;102444.78;5082041;28;20542;-78
2020/12/25 04:33:11;;;;;;;7.10;1.08;;;;;;;2.10;92.09;102452.53;5060663;28;20092;-78
2020/12/25 04:35:36;;;;;;;5.25;1.15;;;;;;;1.97;91.74;102462.41;5063169;28;20020;-78
2020/12/25 04:38:01;;;;;;;5.33;1.23;;;;;;;1.82;92.06;102457.81;5082644;28;20082;-79
2020/12/25 04:40:27;;;;;;;10.43;1.80;;;;;;;1.93;93.16;102456.16;5081479;28;20701;-79
2020/12/25 04:42:54;;;;;;;12.07;1.10;;;;;;;2.19;93.58;102465.94;5063046;28;20020;-79
2020/12/25 04:45:21;;;;;;;5.13;1.23;;;;;;;2.36;93.08;102465.72;5068732;28;20025;-79
2020/12/25 04:47:46;;;;;;;10.93;1.33;;;;;;;2.45;92.68;102466.47;5043256;28;20040;-80
2020/12/25 04:50:12;;;;;;;6.72;0.95;;;;;;;2.52;92.11;102467.84;5052108;28;20144;-80
2020/12/25 04:52:38;;;;;;;9.57;0.82;;;;;;;2.49;91.75;102463.41;5043843;28;20020;-79
2020/12/25 04:55:05;;;;;;;4.28;2.05;;;;;;;2.53;91.58;102466.19;5063003;28;20032;-79
2020/12/25 04:57:30;;;;;;;3.65;0.85;;;;;;;2.50;91.77;102457.56;5063202;28;20111;-79
2020/12/25 04:59:55;;;;;;;6.97;1.00;;;;;;;2.51;91.75;102458.47;5068541;28;20060;-78
2020/12/25 05:02:21;;;;;;;14.15;1.35;;;;;;;2.47;91.95;102461.50;5065043;28;20496;-78
2020/12/25 05:04:46;;;;;;;8.07;0.80;;;;;;;2.43;91.77;102465.44;5078509;22;20011;-79
2020/12/25 05:07:13;;;;;;;7.10;1.15;;;;;;;2.44;92.03;102474.81;5072861;28;20035;-79
2020/12/25 05:09:39;;;;;;;9.60;1.43;;;;;;;2.43;92.05;102472.16;5068461;28;20110;-81
2020/12/25 05:12:04;;;;;;;6.75;0.93;;;;;;;2.42;91.70;102476.34;5087409;28;20490;-78
2020/12/25 05:14:32;;;;;;;11.55;1.65;;;;;;;2.41;91.66;102481.31;5064689;28;20039;-78
2020/12/25 05:16:58;;;;;;;9.07;1.40;;;;;;;2.37;91.46;102485.25;5047421;28;20033;-78
2020/12/25 05:19:27;;;;;;;;;;;;;;;2.35;91.66;102494.38;5061260;28;20080;-77
2020/12/25 05:21:56;;;;;;;9.87;1.77;;;;;;;2.33;91.54;102500.97;5050591;28;20003;-79
2020/12/25 05:24:22;;;;;;;15.47;1.80;;;;;;;2.31;91.27;102496.53;5047205;28;20032;-77
2020/12/25 05:26:55;;;;;;;8.80;1.27;;;;;;;2.27;91.40;102507.16;5065708;28;20028;-77
2020/12/25 05:29:24;;;;;;;15.20;1.70;;;;;;;2.33;90.99;102510.22;5047511;28;20059;-79
2020/12/25 05:31:52;;;;;;;23.97;2.43;;;;;;;2.35;91.10;102508.69;5068358;28;20027;-78
2020/12/25 05:34:18;;;;;;;9.07;1.80;;;;;;;2.35;91.03;102516.31;5051690;28;20031;-80
2020/12/25 05:36:51;;;;;;;18.37;2.37;;;;;;;2.43;91.01;102515.28;5064463;28;20112;-80
2020/12/25 05:39:37;;;;;;;19.80;2.13;;;;;;;2.52;90.86;102517.69;5070129;28;20047;-81
2020/12/25 05:42:07;;;;;;;11.10;1.83;;;;;;;2.57;90.95;102531.63;5044927;28;20067;-80
2020/12/25 05:44:40;;;;;;;18.90;2.00;;;;;;;2.70;90.73;102525.16;5063786;28;20093;-79
2020/12/25 05:47:07;;;;;;;5.63;1.27;;;;;;;2.74;90.98;102522.13;5064335;28;20394;-80
2020/12/25 05:49:33;;;;;;;10.13;1.40;;;;;;;2.80;90.38;102531.88;5049194;28;20073;-79
2020/12/25 05:51:58;;;;;;;6.78;1.48;;;;;;;2.73;90.21;102543.19;5050025;28;20497;-80
2020/12/25 05:54:25;;;;;;;6.10;0.95;;;;;;;2.83;88.67;102510.94;5066257;28;20075;-80
2020/12/25 05:56:53;;;;;;;8.47;1.20;;;;;;;2.87;87.62;102518.03;5049571;28;20371;-78
2020/12/25 05:59:34;;;;;;;13.30;1.10;;;;;;;2.92;86.93;102507.47;5046117;28;20028;-78
2020/12/25 06:02:03;;;;;;;11.97;1.13;;;;;;;2.87;87.08;102512.97;5063235;28;20440;-78
2020/12/25 06:04:31;;;;;;;5.73;0.93;;;;;;;2.85;86.87;102517.03;5047938;28;20021;-78
2020/12/25 06:06:56;;;;;;;4.63;0.70;;;;;;;2.74;86.99;102518.69;5045468;28;20389;-78
2020/12/25 06:09:30;;;;;;;6.85;0.70;;;;;;;2.67;87.16;102527.47;5064768;28;20021;-77
2020/12/25 06:11:56;;;;;;;8.63;1.30;;;;;;;2.67;87.05;102526.56;5045796;28;20025;-78
2020/12/25 06:14:21;;;;;;;7.70;1.50;;;;;;;2.63;87.33;102534.69;5059933;28;20083;-79
2020/12/25 06:16:59;;;;;;;8.60;1.15;;;;;;;2.69;87.39;102532.66;5049537;28;20478;-78
2020/12/25 06:19:43;;;;;;;5.90;0.70;;;;;;;2.64;87.08;102533.94;5046238;28;20044;-79
2020/12/25 06:22:19;;;;;;;8.33;0.90;;;;;;;2.67;87.49;102544.34;5068678;28;20052;-77
2020/12/25 06:24:46;;;;;;;9.70;1.27;;;;;;;2.60;87.69;102548.03;5043756;28;20036;-78
2020/12/25 06:27:14;;;;;;;6.00;0.70;;;;;;;2.53;88.26;102545.72;5043673;28;20021;-77
2020/12/25 06:29:43;;;;;;;6.57;0.60;;;;;;;2.59;87.51;102547.88;5042761;28;20099;-77
2020/12/25 06:32:10;;;;;;;6.03;0.90;;;;;;;2.62;87.88;102555.75;5045332;28;20056;-77
2020/12/25 06:34:42;;;;;;;5.30;0.60;;;;;;;2.61;88.14;102556.53;5064129;28;20024;-77
2020/12/25 06:37:11;;;;;;;6.33;0.87;;;;;;;2.56;88.21;102561.19;5048537;28;20085;-77
2020/12/25 06:39:36;;;;;;;8.47;1.43;;;;;;;2.52;88.15;102565.88;5043044;28;20017;-78
2020/12/25 06:42:02;;;;;;;6.88;0.77;;;;;;;2.44;88.56;102571.22;5043108;28;20131;-80
2020/12/25 06:44:30;;;;;;;7.05;1.70;;;;;;;2.40;88.52;102578.44;5045211;28;20082;-80
2020/12/25 06:47:01;;;;;;;12.53;1.60;;;;;;;2.38;88.43;102575.78;5067717;28;20020;-80
2020/12/25 06:49:34;;;;;;;7.03;1.27;;;;;;;2.52;87.64;102571.84;5068735;28;20047;-80
2020/12/25 06:52:00;;;;;;;5.60;1.20;;;;;;;2.52;87.04;102560.81;5043452;28;20498;-80
2020/12/25 06:54:26;;;;;;;9.75;0.90;;;;;;;2.59;86.13;102561.44;5064052;28;20032;-79
2020/12/25 06:56:53;;;;;;;5.50;0.80;;;;;;;2.54;86.30;102559.28;5044400;28;20079;-77
2020/12/25 06:59:21;;;;;;;8.07;0.90;;;;;;;2.57;86.32;102557.00;5045314;28;20116;-79
2020/12/25 07:01:48;;;;;;;5.97;0.70;;;;;;;2.58;85.16;102566.38;5046623;28;20634;-77
2020/12/25 07:04:26;;;;;;;8.00;0.70;;;;;;;2.45;86.27;102567.91;5047505;28;20021;-77
2020/12/25 07:06:57;;;;;;;10.60;1.10;;;;;;;2.26;86.81;102564.56;5058649;28;20021;-78
2020/12/25 07:09:34;;;;;;;5.93;0.80;;;;;;;2.19;86.93;102567.34;5070123;28;20020;-79
2020/12/25 07:12:04;;;;;;;8.67;1.27;;;;;;;2.11;87.21;102573.44;5065061;28;20074;-77
2020/12/25 07:14:29;;;;;;;7.47;1.10;;;;;;;2.07;87.68;102564.69;5067232;28;20129;-78
2020/12/25 07:16:55;;;;;;;2.70;0.70;;;;;;;2.15;87.59;102572.94;5048142;28;20049;-78
2020/12/25 07:19:20;;;;;;;4.90;0.80;;;;;;;2.22;86.55;102569.25;5049107;28;20279;-79
2020/12/25 07:21:46;;;;;;;1.67;0.33;;;;;;;2.22;87.17;102575.22;5046981;28;20120;-77
2020/12/25 07:24:12;;;;;;;2.67;0.53;;;;;;;2.30;86.51;102576.78;5067759;28;20035;-79
2020/12/25 07:26:37;;;;;;;6.03;1.05;;;;;;;2.28;86.63;102580.84;5048682;28;20025;-78
2020/12/25 07:29:12;;;;;;;4.65;0.70;;;;;;;2.25;86.74;102578.00;5070428;28;20024;-77
2020/12/25 07:31:37;;;;;;;8.70;0.83;;;;;;;2.29;86.34;102576.66;5051013;28;20025;-78
2020/12/25 07:34:02;;;;;;;8.50;0.97;;;;;;;2.32;86.09;102585.41;5064937;28;20032;-77
2020/12/25 07:36:29;;;;;;;8.23;0.80;;;;;;;2.27;86.46;102583.22;5050844;28;20801;-77
2020/12/25 07:39:03;;;;;;;7.40;0.67;;;;;;;2.30;86.04;102592.00;5049104;28;20029;-78
2020/12/25 07:41:28;;;;;;;7.63;0.70;;;;;;;2.25;86.61;102595.75;5065322;28;20037;-78
2020/12/25 07:43:56;;;;;;;6.60;0.90;;;;;;;2.25;86.03;102598.28;5048649;28;20416;-78
2020/12/25 07:46:21;;;;;;;7.17;0.70;;;;;;;2.19;85.66;102592.72;5044916;28;20075;-79
2020/12/25 07:48:47;;;;;;;7.68;0.70;;;;;;;2.17;86.75;102597.66;5050675;28;20313;-77
2020/12/25 07:51:13;;;;;;;4.15;0.90;;;;;;;2.11;87.48;102604.72;5046780;28;20132;-77
2020/12/25 07:53:47;;;;;;;;;;;;;;;2.18;87.41;102611.22;5046930;28;20029;-76
2020/12/25 07:56:14;;;;;;;3.03;0.57;;;;;;;2.11;88.01;102619.94;5063806;28;19919;-77
2020/12/25 07:58:40;;;;;;;3.50;0.85;;;;;;;2.17;88.41;102615.41;5043502;28;20028;-77
2020/12/25 08:01:08;;;;;;;5.20;0.77;;;;;;;2.37;87.33;102624.72;5066767;28;20032;-76
2020/12/25 08:03:34;;;;;;;8.63;0.90;;;;;;;2.45;87.18;102618.63;5043674;28;20108;-77
2020/12/25 08:06:01;;;;;;;;;;;;;;;2.60;86.10;102623.22;5044093;28;20061;-77
2020/12/25 08:08:27;;;;;;;7.30;0.98;;;;;;;2.54;86.61;102630.31;5065132;28;20003;-76
2020/12/25 08:10:54;;;;;;;11.03;3.23;;;;;;;2.63;86.37;102631.09;5042738;28;20032;-77
2020/12/25 08:13:20;;;;;;;8.60;1.20;;;;;;;2.52;87.44;102639.44;5059525;28;20024;-77
2020/12/25 08:15:46;;;;;;;7.97;1.30;;;;;;;2.40;87.30;102624.09;5051463;28;20050;-76
2020/12/25 08:18:11;;;;;;;10.55;1.05;;;;;;;2.46;87.05;102622.06;5036316;28;20021;-76
2020/12/25 08:20:36;;;;;;;6.28;0.98;;;;;;;2.32;88.05;102630.16;5036730;28;20033;-77
2020/12/25 08:23:03;;;;;;;6.00;0.90;;;;;;;2.25;88.28;102623.66;5055305;28;20978;-77
2020/12/25 08:25:30;;;;;;;9.30;1.30;;;;;;;2.29;88.18;102622.28;5050341;28;20406;-77
2020/12/25 08:27:56;;;;;;;7.37;1.20;;;;;;;2.26;88.04;102622.00;5053609;28;20462;-77
2020/12/25 08:30:23;;;;;;;12.10;1.27;;;;;;;2.30;88.19;102617.34;5043676;28;20543;-77
2020/12/25 08:32:50;;;;;;;12.17;1.10;;;;;;;2.25;88.25;102628.72;5066042;28;20033;-77
2020/12/25 08:35:18;;;;;;;13.87;1.40;;;;;;;2.25;88.15;102628.72;5055368;28;20111;-77
2020/12/25 08:37:56;;;;;;;11.80;1.30;;;;;;;2.31;88.21;102621.66;5063330;28;20040;-76
2020/12/25 08:40:22;;;;;;;9.87;1.70;;;;;;;2.38;87.52;102623.97;5046275;28;20422;-76
2020/12/25 08:42:48;;;;;;;10.17;1.37;;;;;;;2.37;87.25;102622.19;5043551;28;20040;-76
2020/12/25 08:45:18;;;;;;;5.13;0.98;;;;;;;2.36;87.77;102620.41;5072568;28;20050;-76
2020/12/25 08:47:43;;;;;;;5.83;0.80;;;;;;;2.35;87.84;102618.63;5052706;28;20028;-77
2020/12/25 08:50:08;;;;;;;7.20;1.58;;;;;;;2.45;87.56;102618.63;5048725;28;20066;-77
2020/12/25 08:52:34;;;;;;;9.80;1.10;;;;;;;2.47;87.19;102622.19;5046484;28;20025;-77
2020/12/25 08:55:00;;;;;;;4.30;1.10;;;;;;;2.48;87.24;102623.97;5060171;28;20283;-77
2020/12/25 08:57:27;;;;;;;12.90;1.38;;;;;;;2.56;86.83;102626.25;5045471;28;20028;-77
2020/12/25 09:00:06;;;;;;;15.40;1.63;;;;;;;2.57;87.07;102628.91;5058326;28;20016;-77
2020/12/25 09:02:31;;;;;;;11.30;1.57;;;;;;;2.59;87.28;102627.41;5040442;28;20029;-76
2020/12/25 09:04:57;;;;;;;11.32;2.50;;;;;;;2.65;87.28;102637.19;5051271;28;20036;-78
2020/12/25 09:07:22;;;;;;;11.85;1.73;;;;;;;2.71;86.54;102630.97;5052406;28;20028;-77
2020/12/25 09:09:47;;;;;;;17.57;2.10;;;;;;;2.82;87.59;102647.09;5045538;28;20036;-77
2020/12/25 09:12:13;;;;;;;9.83;1.53;;;;;;;3.12;87.46;102669.06;5054569;28;20146;-76
2020/12/25 09:14:38;;;;;;;5.27;1.10;;;;;;;3.42;85.16;102640.22;5035134;28;20291;-76
2020/12/25 09:17:03;;;;;;;9.70;1.23;;;;;;;3.52;85.54;102645.25;5039404;28;20470;-76
2020/12/25 09:19:28;;;;;;;5.13;0.83;;;;;;;3.60;83.56;102656.97;5066152;28;20289;-76
2020/12/25 09:21:54;;;;;;;9.07;1.47;;;;;;;3.65;83.07;102654.78;5042523;28;20607;-76
2020/12/25 09:24:20;;;;;;;9.60;1.67;;;;;;;3.63;83.10;102659.75;5033680;28;20303;-77
2020/12/25 09:26:46;;;;;;;8.50;2.22;;;;;;;3.62;84.02;102652.88;5063854;28;20044;-77
2020/12/25 09:29:12;;;;;;;7.90;1.23;;;;;;;3.78;84.24;102654.97;5070135;28;20020;-77
2020/12/25 09:31:37;;;;;;;14.80;1.90;;;;;;;3.82;84.44;102667.16;5065931;28;20414;-77
2020/12/25 09:34:02;;;;;;;10.23;1.38;;;;;;;3.91;84.26;102675.56;5044385;28;20055;-77
2020/12/25 09:36:27;;;;;;;13.80;1.60;;;;;;;3.95;83.69;102666.50;5050566;28;20017;-76
2020/12/25 09:38:53;;;;;;;13.70;1.70;;;;;;;3.86;83.89;102670.84;5040047;28;20275;-76
2020/12/25 09:41:18;;;;;;;9.87;1.30;;;;;;;3.83;83.43;102668.94;5039798;28;20493;-77
2020/12/25 09:43:44;;;;;;;8.15;1.40;;;;;;;3.72;84.02;102667.22;5053388;28;20044;-77
2020/12/25 09:46:10;;;;;;;9.73;1.80;;;;;;;3.85;83.70;102669.06;5070709;28;20107;-76
2020/12/25 09:48:35;;;;;;;6.55;1.23;;;;;;;3.96;83.33;102668.28;5050344;28;20267;-77
2020/12/25 09:51:02;;;;;;;10.18;1.45;;;;;;;4.11;83.42;102671.13;5034022;28;20486;-77
2020/12/25 09:53:27;;;;;;;9.83;1.50;;;;;;;4.25;83.01;102668.94;5042860;28;20087;-77
2020/12/25 09:55:52;;;;;;;4.93;1.10;;;;;;;4.33;83.23;102678.03;5048681;28;20489;-77
2020/12/25 09:58:18;;;;;;;12.77;1.67;;;;;;;4.24;83.08;102666.25;5067882;28;20033;-78
2020/12/25 10:00:43;;;;;;;6.53;1.40;;;;;;;4.23;82.15;102667.94;5043199;28;20294;-77
2020/12/25 10:03:08;;;;;;;11.30;0.95;;;;;;;4.18;82.34;102670.84;5040205;28;20274;-77
2020/12/25 10:05:34;;;;;;;7.50;1.20;;;;;;;4.04;82.89;102667.22;5058743;28;20115;-78
2020/12/25 10:07:59;;;;;;;7.17;1.40;;;;;;;4.10;82.79;102675.34;5047104;28;20028;-80
2020/12/25 10:10:24;;;;;;;7.03;1.10;;;;;;;4.12;82.65;102676.34;5042355;28;20405;-76
2020/12/25 10:12:51;;;;;;;9.85;1.55;;;;;;;4.19;82.90;102672.63;5036483;28;20024;-78
2020/12/25 10:15:17;;;;;;;5.70;1.10;;;;;;;4.69;81.79;102674.00;5056998;28;20060;-77
2020/12/25 10:17:42;;;;;;;6.47;1.40;;;;;;;5.40;79.26;102676.00;5041416;28;20063;-77
2020/12/25 10:20:08;;;;;;;4.25;1.35;;;;;;;6.50;74.26;102679.72;5039242;28;20029;-77
2020/12/25 10:22:33;;;;;;;7.00;1.33;;;;;;;7.71;70.02;102680.16;5048318;28;20024;-77
2020/12/25 10:24:59;;;;;;;8.20;1.35;;;;;;;8.65;66.31;102686.13;5056870;28;20032;-78
2020/12/25 10:27:25;;;;;;;7.63;1.25;;;;;;;8.37;67.97;102692.91;5043040;28;20537;-77
2020/12/25 10:29:50;;;;;;;;;;;;;;;7.71;69.81;102692.94;5044567;28;20390;-77
2020/12/25 10:32:15;;;;;;;6.80;1.10;;;;;;;6.93;72.32;102699.66;5039029;28;19916;-77
2020/12/25 10:34:41;;;;;;;7.85;1.55;;;;;;;6.29;74.71;102716.50;5040201;28;20063;-78
2020/12/25 10:37:06;;;;;;;6.95;1.08;;;;;;;5.66;77.14;102716.16;5063558;28;20017;-77
2020/12/25 10:39:32;;;;;;;10.10;1.15;;;;;;;5.17;77.81;102706.50;5060250;28;20082;-78
2020/12/25 10:41:57;;;;;;;6.57;0.90;;;;;;;4.82;79.14;102699.63;5057574;28;20280;-77
2020/12/25 10:44:23;;;;;;;8.13;1.03;;;;;;;4.49;80.62;102691.94;5044171;28;20491;-78
2020/12/25 10:46:48;;;;;;;3.38;0.60;;;;;;;4.36;82.77;102692.66;5040826;28;20036;-77
2020/12/25 10:49:13;;;;;;;5.50;0.77;;;;;;;4.37;82.08;102694.44;5058404;28;20153;-76
2020/12/25 10:51:44;;;;;;;5.05;0.70;;;;;;;4.33;82.22;102688.22;5046362;28;20017;-78
2020/12/25 10:54:09;;;;;;;4.27;0.90;;;;;;;4.32;82.09;102691.53;5052747;28;20464;-77
2020/12/25 10:56:34;;;;;;;2.90;1.53;;;;;;;4.38;82.70;102694.53;5044596;28;20166;-77
2020/12/25 10:59:00;;;;;;;2.92;0.50;;;;;;;4.63;82.75;102696.47;5068096;28;20055;-77
2020/12/25 11:01:27;;;;;;;5.07;0.60;;;;;;;4.82;82.24;102702.16;5032216;28;20025;-77
2020/12/25 11:03:54;;;;;;;5.00;0.77;;;;;;;4.96;82.06;102696.50;5034732;28;20028;-76
2020/12/25 11:06:28;;;;;;;5.10;0.70;;;;;;;5.00;80.36;102698.50;5040078;28;20029;-76
2020/12/25 11:08:54;;;;;;;4.30;1.07;;;;;;;4.96;80.76;102696.50;5038170;28;20039;-75
2020/12/25 11:11:32;;;;;;;3.40;0.63;;;;;;;4.88;79.95;102697.56;5033863;28;20498;-76
2020/12/25 11:13:58;;;;;;;5.10;0.60;;;;;;;4.72;81.23;102693.72;5048130;28;20826;-77
2020/12/25 11:16:25;;;;;;;3.47;0.77;;;;;;;4.62;81.93;102692.13;5031878;28;20023;-75
2020/12/25 11:18:52;;;;;;;5.07;0.80;;;;;;;5.41;85.55;102685.41;5050645;28;20016;-76
2020/12/25 11:21:22;;;;;;;4.28;0.80;;;;;;;7.54;79.10;102675.63;5051290;28;20031;-77
2020/12/25 11:23:51;;;;;;;5.90;1.07;;;;;;;9.45;67.95;102662.66;5062097;28;20042;-78
2020/12/25 11:26:28;;;;;;;3.88;0.50;;;;;;;10.47;60.52;102658.09;5058293;28;20057;-77
2020/12/25 11:28:57;;;;;;;6.15;1.15;;;;;;;11.01;62.13;102657.47;5068323;28;20024;-78
2020/12/25 11:31:23;;;;;;;5.93;1.00;;;;;;;10.85;61.35;102660.09;5068978;28;20021;-77